SHT22B EGLL-EGJB
Flight info
| Callsign | SHT22B |
|---|---|
| Flight time | 0h 39m |
| Altitude | 25000 |
| Route | GASGU N866 SAM/N0397F240 N63 LELNA |
| Aircraft | A319/M-SDE3FGHIRWY/LB1 |
Departure
| Time | 2026-04-20 17:12 |
|---|---|
| Airport | London Heathrow Airport (EGLL) |
Arrival
| Time | 2026-04-20 17:51 |
|---|---|
| Airport | Guernsey Airport (EGJB) |
| Time | Latitude | Longitude | Altitude | Speed | Heading |
|---|---|---|---|---|---|
| 2026-04-20 16:32 | 51.47403 | -0.48829 | 86 ft | 0 kts | 180° |
| 2026-04-20 17:01 | 51.47422 | -0.48829 | 88 ft | 4 kts | 180° |
| 2026-04-20 17:01 | 51.47449 | -0.48829 | 86 ft | 4 kts | 180° |
| 2026-04-20 17:02 | 51.47466 | -0.48831 | 86 ft | 4 kts | 159° |
| 2026-04-20 17:02 | 51.47484 | -0.48855 | 88 ft | 4 kts | 109° |
| 2026-04-20 17:02 | 51.47490 | -0.48889 | 87 ft | 2 kts | 103° |
| 2026-04-20 17:02 | 51.47490 | -0.48891 | 86 ft | 0 kts | 103° |
| 2026-04-20 17:06 | 51.47488 | -0.48880 | 86 ft | 4 kts | 103° |
| 2026-04-20 17:06 | 51.47486 | -0.48800 | 86 ft | 10 kts | 89° |
| 2026-04-20 17:06 | 51.47487 | -0.48689 | 87 ft | 10 kts | 89° |
| 2026-04-20 17:07 | 51.47488 | -0.48542 | 86 ft | 16 kts | 89° |
| 2026-04-20 17:07 | 51.47488 | -0.48414 | 86 ft | 8 kts | 90° |
| 2026-04-20 17:07 | 51.47439 | -0.48360 | 86 ft | 11 kts | 178° |
| 2026-04-20 17:07 | 51.47354 | -0.48359 | 86 ft | 14 kts | 182° |
| 2026-04-20 17:08 | 51.47245 | -0.48358 | 86 ft | 17 kts | 178° |
| 2026-04-20 17:08 | 51.47151 | -0.48356 | 88 ft | 13 kts | 179° |
| 2026-04-20 17:08 | 51.47050 | -0.48357 | 87 ft | 16 kts | 181° |
| 2026-04-20 17:08 | 51.46942 | -0.48355 | 86 ft | 12 kts | 178° |
| 2026-04-20 17:09 | 51.46853 | -0.48351 | 86 ft | 13 kts | 179° |
| 2026-04-20 17:09 | 51.46792 | -0.48352 | 86 ft | 8 kts | 181° |
| 2026-04-20 17:09 | 51.46743 | -0.48308 | 86 ft | 7 kts | 90° |
| 2026-04-20 17:09 | 51.46751 | -0.48278 | 90 ft | 3 kts | 88° |
| 2026-04-20 17:10 | 51.46734 | -0.48228 | 86 ft | 7 kts | 139° |
| 2026-04-20 17:10 | 51.46676 | -0.48206 | 86 ft | 10 kts | 185° |
| 2026-04-20 17:10 | 51.46592 | -0.48213 | 87 ft | 14 kts | 180° |
| 2026-04-20 17:10 | 51.46514 | -0.48212 | 88 ft | 5 kts | 176° |
| 2026-04-20 17:11 | 51.46482 | -0.48171 | 88 ft | 8 kts | 111° |
| 2026-04-20 17:11 | 51.46479 | -0.48128 | 88 ft | 0 kts | 91° |
| 2026-04-20 17:11 | 51.46479 | -0.48099 | 88 ft | 11 kts | 91° |
| 2026-04-20 17:11 | 51.46481 | -0.47586 | 86 ft | 80 kts | 90° |
| 2026-04-20 17:12 | 51.46485 | -0.46343 | 91 ft | 141 kts | 89° |
| 2026-04-20 17:12 | 51.46489 | -0.44600 | 530 ft | 160 kts | 90° |
| 2026-04-20 17:12 | 51.46506 | -0.42824 | 1408 ft | 158 kts | 85° |
| 2026-04-20 17:12 | 51.46282 | -0.41089 | 2282 ft | 165 kts | 115° |
| 2026-04-20 17:13 | 51.45613 | -0.39578 | 3150 ft | 165 kts | 121° |
| 2026-04-20 17:13 | 51.44931 | -0.38027 | 3792 ft | 180 kts | 120° |
| 2026-04-20 17:13 | 51.44170 | -0.36267 | 4288 ft | 205 kts | 121° |
| 2026-04-20 17:13 | 51.43198 | -0.34402 | 4862 ft | 235 kts | 136° |
| 2026-04-20 17:14 | 51.41683 | -0.33063 | 5563 ft | 265 kts | 161° |
| 2026-04-20 17:14 | 51.39802 | -0.32783 | 5966 ft | 278 kts | 187° |
| 2026-04-20 17:14 | 51.38001 | -0.33891 | 6012 ft | 281 kts | 214° |
| 2026-04-20 17:14 | 51.36538 | -0.35953 | 6009 ft | 280 kts | 223° |
| 2026-04-20 17:15 | 51.35105 | -0.38076 | 6008 ft | 281 kts | 223° |
| 2026-04-20 17:15 | 51.33664 | -0.40186 | 6013 ft | 282 kts | 223° |
| 2026-04-20 17:15 | 51.32213 | -0.42295 | 6010 ft | 284 kts | 222° |
| 2026-04-20 17:15 | 51.30863 | -0.44653 | 6249 ft | 288 kts | 236° |
| 2026-04-20 17:16 | 51.29996 | -0.47478 | 6264 ft | 281 kts | 254° |
| 2026-04-20 17:16 | 51.29471 | -0.50475 | 6267 ft | 280 kts | 256° |
| 2026-04-20 17:16 | 51.28939 | -0.53467 | 6269 ft | 280 kts | 255° |
| 2026-04-20 17:16 | 51.28400 | -0.56436 | 6551 ft | 285 kts | 255° |
| 2026-04-20 17:17 | 51.27836 | -0.59462 | 7688 ft | 284 kts | 255° |
| 2026-04-20 17:17 | 51.27250 | -0.62481 | 8849 ft | 285 kts | 255° |
| 2026-04-20 17:17 | 51.26655 | -0.65507 | 10032 ft | 287 kts | 255° |
| 2026-04-20 17:17 | 51.26047 | -0.68605 | 10771 ft | 303 kts | 255° |
| 2026-04-20 17:18 | 51.25397 | -0.71933 | 11259 ft | 323 kts | 255° |
| 2026-04-20 17:18 | 51.24722 | -0.75395 | 12114 ft | 329 kts | 255° |
| 2026-04-20 17:18 | 51.24035 | -0.78899 | 13068 ft | 332 kts | 255° |
| 2026-04-20 17:18 | 51.23339 | -0.82432 | 14025 ft | 335 kts | 255° |
| 2026-04-20 17:19 | 51.22636 | -0.85996 | 14884 ft | 338 kts | 255° |
| 2026-04-20 17:19 | 51.21929 | -0.89578 | 15742 ft | 340 kts | 256° |
| 2026-04-20 17:19 | 51.21168 | -0.93164 | 16596 ft | 344 kts | 251° |
| 2026-04-20 17:19 | 51.20009 | -0.96547 | 17409 ft | 352 kts | 240° |
| 2026-04-20 17:20 | 51.18398 | -0.99546 | 18283 ft | 360 kts | 230° |
| 2026-04-20 17:20 | 51.16583 | -1.02326 | 19038 ft | 363 kts | 230° |
| 2026-04-20 17:20 | 51.14756 | -1.05122 | 19782 ft | 365 kts | 230° |
| 2026-04-20 17:20 | 51.12917 | -1.07934 | 20535 ft | 368 kts | 230° |
| 2026-04-20 17:21 | 51.11068 | -1.10766 | 21268 ft | 370 kts | 231° |
| 2026-04-20 17:21 | 51.09210 | -1.13616 | 22016 ft | 372 kts | 231° |
| 2026-04-20 17:21 | 51.07340 | -1.16484 | 22743 ft | 375 kts | 231° |
| 2026-04-20 17:21 | 51.05459 | -1.19368 | 23150 ft | 376 kts | 231° |
| 2026-04-20 17:22 | 51.03579 | -1.22241 | 23234 ft | 371 kts | 231° |
| 2026-04-20 17:22 | 51.01726 | -1.25057 | 23243 ft | 368 kts | 231° |
| 2026-04-20 17:22 | 50.99906 | -1.27821 | 23246 ft | 367 kts | 231° |
| 2026-04-20 17:22 | 50.98067 | -1.30623 | 23247 ft | 366 kts | 231° |
| 2026-04-20 17:23 | 50.96199 | -1.33384 | 23250 ft | 370 kts | 227° |
| 2026-04-20 17:23 | 50.94048 | -1.35702 | 23247 ft | 380 kts | 216° |
| 2026-04-20 17:23 | 50.91684 | -1.37604 | 23248 ft | 382 kts | 214° |
| 2026-04-20 17:23 | 50.89308 | -1.39487 | 23250 ft | 382 kts | 214° |
| 2026-04-20 17:24 | 50.86934 | -1.41371 | 23231 ft | 381 kts | 214° |
| 2026-04-20 17:24 | 50.84566 | -1.43251 | 23223 ft | 381 kts | 214° |
| 2026-04-20 17:24 | 50.82198 | -1.45132 | 23237 ft | 381 kts | 214° |
| 2026-04-20 17:24 | 50.79832 | -1.47014 | 23242 ft | 381 kts | 214° |
| 2026-04-20 17:25 | 50.77469 | -1.48896 | 23243 ft | 381 kts | 214° |
| 2026-04-20 17:25 | 50.75105 | -1.50780 | 23246 ft | 380 kts | 214° |
| 2026-04-20 17:25 | 50.72742 | -1.52658 | 23250 ft | 380 kts | 214° |
| 2026-04-20 17:25 | 50.70375 | -1.54536 | 23252 ft | 380 kts | 214° |
| 2026-04-20 17:26 | 50.68010 | -1.56405 | 23251 ft | 380 kts | 214° |
| 2026-04-20 17:26 | 50.65642 | -1.58273 | 23251 ft | 381 kts | 214° |
| 2026-04-20 17:26 | 50.63275 | -1.60136 | 23221 ft | 380 kts | 213° |
| 2026-04-20 17:26 | 50.60906 | -1.61996 | 23227 ft | 380 kts | 213° |
| 2026-04-20 17:27 | 50.58544 | -1.63850 | 23236 ft | 380 kts | 213° |
| 2026-04-20 17:27 | 50.56183 | -1.65705 | 23243 ft | 379 kts | 213° |
| 2026-04-20 17:27 | 50.53824 | -1.67562 | 23250 ft | 379 kts | 213° |
| 2026-04-20 17:27 | 50.51464 | -1.69416 | 23252 ft | 379 kts | 213° |
| 2026-04-20 17:28 | 50.49105 | -1.71267 | 23250 ft | 379 kts | 213° |
| 2026-04-20 17:28 | 50.46750 | -1.73113 | 23250 ft | 379 kts | 213° |
| 2026-04-20 17:28 | 50.44392 | -1.74959 | 23250 ft | 379 kts | 213° |
| 2026-04-20 17:28 | 50.42035 | -1.76805 | 23250 ft | 379 kts | 213° |
| 2026-04-20 17:29 | 50.39678 | -1.78645 | 23224 ft | 378 kts | 213° |
| 2026-04-20 17:29 | 50.37322 | -1.80482 | 23236 ft | 378 kts | 214° |
| 2026-04-20 17:29 | 50.34972 | -1.82315 | 23241 ft | 377 kts | 214° |
| 2026-04-20 17:29 | 50.32622 | -1.84145 | 23244 ft | 377 kts | 213° |
| 2026-04-20 17:30 | 50.30275 | -1.85970 | 23233 ft | 377 kts | 213° |
| 2026-04-20 17:30 | 50.27929 | -1.87791 | 23239 ft | 376 kts | 213° |
| 2026-04-20 17:30 | 50.25586 | -1.89607 | 23242 ft | 376 kts | 213° |
| 2026-04-20 17:30 | 50.23243 | -1.91420 | 23244 ft | 376 kts | 213° |
| 2026-04-20 17:31 | 50.20899 | -1.93229 | 23239 ft | 376 kts | 213° |
| 2026-04-20 17:31 | 50.18558 | -1.95034 | 23239 ft | 375 kts | 213° |
| 2026-04-20 17:31 | 50.16218 | -1.96839 | 23146 ft | 375 kts | 213° |
| 2026-04-20 17:31 | 50.13891 | -1.98631 | 22869 ft | 372 kts | 213° |
| 2026-04-20 17:32 | 50.11575 | -2.00416 | 22596 ft | 370 kts | 213° |
| 2026-04-20 17:32 | 50.09271 | -2.02196 | 22325 ft | 369 kts | 213° |
| 2026-04-20 17:32 | 50.06972 | -2.03970 | 22058 ft | 368 kts | 212° |
| 2026-04-20 17:32 | 50.04676 | -2.05732 | 21794 ft | 367 kts | 212° |
| 2026-04-20 17:33 | 50.02386 | -2.07483 | 21531 ft | 367 kts | 212° |
| 2026-04-20 17:33 | 50.00108 | -2.09252 | 21264 ft | 364 kts | 214° |
| 2026-04-20 17:33 | 49.98032 | -2.11423 | 21013 ft | 357 kts | 225° |
| 2026-04-20 17:33 | 49.96296 | -2.14043 | 20762 ft | 350 kts | 233° |
| 2026-04-20 17:34 | 49.94689 | -2.16886 | 20487 ft | 350 kts | 233° |
| 2026-04-20 17:34 | 49.93073 | -2.19726 | 20236 ft | 351 kts | 233° |
| 2026-04-20 17:34 | 49.91452 | -2.22561 | 19975 ft | 351 kts | 232° |
| 2026-04-20 17:34 | 49.89845 | -2.25360 | 19586 ft | 345 kts | 232° |
| 2026-04-20 17:35 | 49.88255 | -2.28123 | 19112 ft | 342 kts | 232° |
| 2026-04-20 17:35 | 49.86675 | -2.30864 | 18639 ft | 340 kts | 232° |
| 2026-04-20 17:35 | 49.85106 | -2.33586 | 18112 ft | 337 kts | 232° |
| 2026-04-20 17:35 | 49.83558 | -2.36277 | 17646 ft | 333 kts | 232° |
| 2026-04-20 17:36 | 49.82025 | -2.38938 | 17186 ft | 329 kts | 231° |
| 2026-04-20 17:36 | 49.80510 | -2.41566 | 16733 ft | 325 kts | 232° |
| 2026-04-20 17:36 | 49.79009 | -2.44164 | 16286 ft | 322 kts | 231° |
| 2026-04-20 17:36 | 49.77521 | -2.46737 | 15842 ft | 319 kts | 231° |
| 2026-04-20 17:37 | 49.76048 | -2.49286 | 15399 ft | 317 kts | 231° |
| 2026-04-20 17:37 | 49.74590 | -2.51807 | 15074 ft | 311 kts | 231° |
| 2026-04-20 17:37 | 49.73153 | -2.54290 | 14695 ft | 309 kts | 233° |
| 2026-04-20 17:37 | 49.71722 | -2.56765 | 14241 ft | 308 kts | 232° |
| 2026-04-20 17:38 | 49.70293 | -2.59231 | 13768 ft | 308 kts | 230° |
| 2026-04-20 17:38 | 49.68713 | -2.61558 | 13250 ft | 322 kts | 221° |
| 2026-04-20 17:38 | 49.66947 | -2.63732 | 12793 ft | 324 kts | 221° |
| 2026-04-20 17:38 | 49.65177 | -2.65876 | 12306 ft | 324 kts | 220° |
| 2026-04-20 17:39 | 49.63409 | -2.68029 | 11878 ft | 323 kts | 220° |
| 2026-04-20 17:39 | 49.61660 | -2.70198 | 11449 ft | 322 kts | 221° |
| 2026-04-20 17:39 | 49.59925 | -2.72364 | 11021 ft | 320 kts | 220° |
| 2026-04-20 17:39 | 49.58202 | -2.74521 | 10599 ft | 318 kts | 221° |
| 2026-04-20 17:40 | 49.56501 | -2.76665 | 10190 ft | 314 kts | 220° |
| 2026-04-20 17:40 | 49.54852 | -2.78759 | 10044 ft | 300 kts | 220° |
| 2026-04-20 17:40 | 49.53278 | -2.80773 | 9653 ft | 294 kts | 220° |
| 2026-04-20 17:40 | 49.51717 | -2.82771 | 9090 ft | 289 kts | 220° |
| 2026-04-20 17:41 | 49.50200 | -2.84722 | 8672 ft | 279 kts | 220° |
| 2026-04-20 17:41 | 49.48744 | -2.86613 | 8276 ft | 270 kts | 220° |
| 2026-04-20 17:41 | 49.47339 | -2.88448 | 7945 ft | 260 kts | 220° |
| 2026-04-20 17:41 | 49.45997 | -2.90210 | 7759 ft | 245 kts | 220° |
| 2026-04-20 17:42 | 49.44732 | -2.91879 | 7638 ft | 236 kts | 220° |
| 2026-04-20 17:42 | 49.43511 | -2.93496 | 7513 ft | 227 kts | 220° |
| 2026-04-20 17:42 | 49.42340 | -2.95043 | 7387 ft | 217 kts | 218° |
| 2026-04-20 17:42 | 49.41026 | -2.95968 | 7214 ft | 205 kts | 188° |
| 2026-04-20 17:43 | 49.39618 | -2.96185 | 6869 ft | 203 kts | 181° |
| 2026-04-20 17:43 | 49.38214 | -2.96295 | 6531 ft | 201 kts | 180° |
| 2026-04-20 17:43 | 49.36825 | -2.96337 | 6169 ft | 198 kts | 172° |
| 2026-04-20 17:43 | 49.35616 | -2.95500 | 5787 ft | 190 kts | 131° |
| 2026-04-20 17:44 | 49.35070 | -2.93750 | 5400 ft | 182 kts | 90° |
| 2026-04-20 17:44 | 49.35399 | -2.91985 | 5014 ft | 177 kts | 53° |
| 2026-04-20 17:44 | 49.36438 | -2.91027 | 4644 ft | 181 kts | 14° |
| 2026-04-20 17:44 | 49.37717 | -2.90980 | 4217 ft | 186 kts | 3° |
| 2026-04-20 17:45 | 49.39011 | -2.91133 | 3790 ft | 187 kts | 2° |
| 2026-04-20 17:45 | 49.40247 | -2.90891 | 3370 ft | 174 kts | 33° |
| 2026-04-20 17:45 | 49.41068 | -2.89650 | 3068 ft | 161 kts | 58° |
| 2026-04-20 17:45 | 49.41667 | -2.88284 | 2896 ft | 148 kts | 61° |
| 2026-04-20 17:46 | 49.42220 | -2.86985 | 2634 ft | 144 kts | 60° |
| 2026-04-20 17:46 | 49.42715 | -2.85664 | 2333 ft | 142 kts | 73° |
| 2026-04-20 17:46 | 49.42798 | -2.84176 | 2099 ft | 139 kts | 85° |
| 2026-04-20 17:46 | 49.42843 | -2.82731 | 2018 ft | 130 kts | 85° |
| 2026-04-20 17:47 | 49.42882 | -2.81428 | 2012 ft | 116 kts | 85° |
| 2026-04-20 17:47 | 49.42921 | -2.80152 | 1996 ft | 128 kts | 85° |
| 2026-04-20 17:47 | 49.42964 | -2.78727 | 1997 ft | 137 kts | 85° |
| 2026-04-20 17:47 | 49.43004 | -2.77335 | 1980 ft | 122 kts | 85° |
| 2026-04-20 17:48 | 49.43041 | -2.76079 | 1983 ft | 115 kts | 85° |
| 2026-04-20 17:48 | 49.43077 | -2.74862 | 1950 ft | 113 kts | 85° |
| 2026-04-20 17:48 | 49.43112 | -2.73656 | 1870 ft | 112 kts | 85° |
| 2026-04-20 17:48 | 49.43147 | -2.72463 | 1744 ft | 111 kts | 84° |
| 2026-04-20 17:49 | 49.43181 | -2.71281 | 1605 ft | 111 kts | 84° |
| 2026-04-20 17:49 | 49.43215 | -2.70103 | 1463 ft | 111 kts | 85° |
| 2026-04-20 17:49 | 49.43248 | -2.68928 | 1315 ft | 110 kts | 84° |
| 2026-04-20 17:49 | 49.43282 | -2.67756 | 1162 ft | 111 kts | 85° |
| 2026-04-20 17:50 | 49.43316 | -2.66562 | 1015 ft | 110 kts | 85° |
| 2026-04-20 17:50 | 49.43347 | -2.65364 | 816 ft | 116 kts | 85° |
| 2026-04-20 17:50 | 49.43379 | -2.64163 | 624 ft | 112 kts | 84° |
| 2026-04-20 17:50 | 49.43416 | -2.62977 | 542 ft | 111 kts | 84° |
| 2026-04-20 17:51 | 49.43439 | -2.62193 | 459 ft | 110 kts | 83° |
| 2026-04-20 17:51 | 49.43467 | -2.61031 | 321 ft | 99 kts | 82° |
| 2026-04-20 17:51 | 49.43499 | -2.60206 | 313 ft | 40 kts | 88° |
| 2026-04-20 17:51 | 49.43504 | -2.60028 | 317 ft | 17 kts | 87° |
| 2026-04-20 17:52 | 49.43486 | -2.59874 | 322 ft | 12 kts | 137° |
| 2026-04-20 17:52 | 49.43428 | -2.59860 | 325 ft | 7 kts | 178° |
| 2026-04-20 17:52 | 49.43375 | -2.59856 | 325 ft | 8 kts | 176° |
| 2026-04-20 17:52 | 49.43347 | -2.59820 | 325 ft | 4 kts | 105° |
| 2026-04-20 17:53 | 49.43347 | -2.59783 | 328 ft | 5 kts | 82° |
| 2026-04-20 17:53 | 49.43359 | -2.59710 | 326 ft | 9 kts | 76° |
| 2026-04-20 17:53 | 49.43360 | -2.59638 | 330 ft | 4 kts | 105° |
| 2026-04-20 17:53 | 49.43330 | -2.59623 | 330 ft | 7 kts | 181° |
| 2026-04-20 17:54 | 49.43294 | -2.59622 | 326 ft | 4 kts | 180° |
| 2026-04-20 17:54 | 49.43270 | -2.59621 | 327 ft | 3 kts | 178° |
| 2026-04-20 17:54 | 49.43255 | -2.59620 | 328 ft | 1 kts | 178° |
| 2026-04-20 17:54 | 49.43253 | -2.59620 | 328 ft | 0 kts | 178° |